createdAt,value
2023-02-03T00:01:12.001Z,4.80
2023-02-03T00:04:00.197Z,4.10
2023-02-03T00:06:48.986Z,4.50
2023-02-03T00:09:36.728Z,4.90
2023-02-03T00:12:24.752Z,4.50
2023-02-03T00:15:13.019Z,5.30
2023-02-03T00:18:00.661Z,4.60
2023-02-03T00:20:48.287Z,4.20
2023-02-03T00:23:36.442Z,4.10
2023-02-03T00:26:26.713Z,4.30
2023-02-03T00:29:14.882Z,3.80
2023-02-03T00:32:03.418Z,3.80
2023-02-03T00:34:51.760Z,3.40
2023-02-03T00:37:39.689Z,3.80
2023-02-03T00:40:30.003Z,4.10
2023-02-03T00:43:17.506Z,3.70
2023-02-03T00:46:05.986Z,3.80
2023-02-03T00:48:54.644Z,3.70
2023-02-03T00:51:43.069Z,4.00
2023-02-03T00:54:32.770Z,4.50
2023-02-03T00:57:22.062Z,4.70
2023-02-03T01:00:11.456Z,3.80
2023-02-03T01:02:59.805Z,3.80
2023-02-03T01:05:47.765Z,3.60
2023-02-03T01:08:35.885Z,3.80
2023-02-03T01:11:27.474Z,3.30
2023-02-03T01:14:15.114Z,3.20
2023-02-03T01:17:03.433Z,3.20
2023-02-03T01:19:53.924Z,3.70
2023-02-03T01:22:42.823Z,3.70
2023-02-03T01:25:30.684Z,3.70
2023-02-03T01:28:18.785Z,3.60
2023-02-03T01:31:16.366Z,3.60
2023-02-03T01:34:04.417Z,4.40
2023-02-03T01:36:52.462Z,3.90
2023-02-03T01:39:40.884Z,4.00
2023-02-03T01:42:34.090Z,4.00
2023-02-03T01:45:21.856Z,4.00
2023-02-03T01:48:10.020Z,4.60
2023-02-03T01:50:58.198Z,4.20
2023-02-03T01:53:47.719Z,4.70
2023-02-03T01:56:41.029Z,4.70
2023-02-03T01:59:31.787Z,4.20
2023-02-03T02:02:20.640Z,4.00
2023-02-03T02:05:35.415Z,4.70
2023-02-03T02:08:24.779Z,5.30
2023-02-03T02:11:13.187Z,5.90
2023-02-03T02:14:03.768Z,5.10
2023-02-03T02:17:32.048Z,5.30
2023-02-03T02:20:58.802Z,6.00
2023-02-03T02:23:52.805Z,5.20
2023-02-03T02:26:53.132Z,6.00
2023-02-03T02:30:06.131Z,5.00
2023-02-03T02:33:36.748Z,4.70
2023-02-03T02:37:01.379Z,5.10
2023-02-03T02:39:58.149Z,5.50
2023-02-03T02:43:43.395Z,5.60
2023-02-03T02:46:49.979Z,5.70
2023-02-03T02:49:47.463Z,5.60
2023-02-03T02:52:40.245Z,5.70
2023-02-03T02:55:33.092Z,5.20
2023-02-03T02:58:24.846Z,3.70
2023-02-03T03:01:13.490Z,4.30
2023-02-03T03:04:07.760Z,5.00
2023-02-03T03:07:01.791Z,4.80
2023-02-03T03:09:57.859Z,4.70
2023-02-03T03:12:54.486Z,5.00
2023-02-03T03:15:45.559Z,3.90
2023-02-03T03:18:49.379Z,4.30
2023-02-03T03:22:01.574Z,4.70
2023-02-03T03:25:08.829Z,5.10
2023-02-03T03:28:03.253Z,4.90
2023-02-03T03:30:51.474Z,5.80
2023-02-03T03:33:40.101Z,4.30
2023-02-03T03:36:42.777Z,4.60
2023-02-03T03:40:10.971Z,4.60
2023-02-03T03:42:59.603Z,4.50
2023-02-03T03:45:56.142Z,5.30
2023-02-03T03:49:03.384Z,5.00
2023-02-03T03:52:05.460Z,4.20
2023-02-03T03:54:54.930Z,3.80
2023-02-03T03:58:10.821Z,3.70
2023-02-03T04:01:06.566Z,3.30
2023-02-03T04:04:06.109Z,3.30
2023-02-03T04:06:55.001Z,4.70
2023-02-03T04:09:43.047Z,4.90
2023-02-03T04:12:31.206Z,4.20
2023-02-03T04:15:19.352Z,4.20
2023-02-03T04:18:07.387Z,4.40
2023-02-03T04:20:55.323Z,4.90
2023-02-03T04:23:43.374Z,4.60
2023-02-03T04:26:31.603Z,4.30
2023-02-03T04:29:19.493Z,4.20
2023-02-03T04:32:07.441Z,4.80
2023-02-03T04:34:55.374Z,4.40
2023-02-03T04:37:43.347Z,3.60
2023-02-03T04:40:30.844Z,4.00
2023-02-03T04:43:18.754Z,3.00
2023-02-03T04:46:06.665Z,4.00
2023-02-03T04:48:54.531Z,3.70
2023-02-03T04:51:44.168Z,3.40
2023-02-03T04:54:32.301Z,3.80
2023-02-03T04:57:20.622Z,4.10
2023-02-03T05:00:10.789Z,4.20
2023-02-03T05:02:58.976Z,4.60
2023-02-03T05:05:46.709Z,4.90
2023-02-03T05:08:34.789Z,3.90
2023-02-03T05:11:22.997Z,3.90
2023-02-03T05:14:10.867Z,3.90
2023-02-03T05:16:58.561Z,3.80
2023-02-03T05:19:46.777Z,4.20
2023-02-03T05:22:35.753Z,3.70
2023-02-03T05:25:23.703Z,4.20
2023-02-03T05:28:11.322Z,3.50
2023-02-03T05:31:00.830Z,4.00
2023-02-03T05:33:48.952Z,4.50
2023-02-03T05:36:36.846Z,4.30
2023-02-03T05:39:25.211Z,5.40
2023-02-03T05:42:13.207Z,4.20
2023-02-03T05:45:01.255Z,4.00
2023-02-03T05:47:49.177Z,5.10
2023-02-03T05:50:38.812Z,5.00
2023-02-03T05:53:29.857Z,5.70
2023-02-03T05:56:17.801Z,5.30
2023-02-03T05:59:06.549Z,6.30
2023-02-03T06:01:54.215Z,6.40
2023-02-03T06:04:42.200Z,6.20
2023-02-03T06:07:30.129Z,6.10
2023-02-03T06:10:18.837Z,6.50
2023-02-03T06:13:13.126Z,5.70
2023-02-03T06:16:01.252Z,6.60
2023-02-03T06:18:49.429Z,7.60
2023-02-03T06:21:37.484Z,5.60
2023-02-03T06:24:25.776Z,6.90
2023-02-03T06:27:14.432Z,7.20
2023-02-03T06:30:02.158Z,6.70
2023-02-03T06:32:52.779Z,5.00
2023-02-03T06:35:40.964Z,5.10
2023-02-03T06:38:28.847Z,5.20
2023-02-03T06:41:16.613Z,4.50
2023-02-03T06:44:04.872Z,5.00
2023-02-03T06:46:53.328Z,4.90
2023-02-03T06:49:44.048Z,4.70
2023-02-03T06:52:31.987Z,5.10
2023-02-03T06:55:21.046Z,5.60
2023-02-03T06:58:09.376Z,5.70
2023-02-03T07:00:57.294Z,5.40
2023-02-03T07:03:45.230Z,5.10
2023-02-03T07:06:34.286Z,6.20
2023-02-03T07:09:22.520Z,6.20
2023-02-03T07:12:10.963Z,6.50
2023-02-03T07:14:59.243Z,5.00
2023-02-03T07:17:54.749Z,8.20
2023-02-03T07:20:42.863Z,5.90
2023-02-03T07:23:30.911Z,6.60
2023-02-03T07:26:19.193Z,5.20
2023-02-03T07:29:07.334Z,6.80
2023-02-03T07:31:55.185Z,5.50
2023-02-03T07:34:43.196Z,6.70
2023-02-03T07:37:31.121Z,7.50
2023-02-03T07:40:20.293Z,6.00
2023-02-03T07:43:08.330Z,7.00
2023-02-03T07:45:56.501Z,7.90
2023-02-03T07:48:44.858Z,6.90
2023-02-03T07:51:32.743Z,7.80
2023-02-03T07:54:20.893Z,7.20
2023-02-03T07:57:08.769Z,7.90
2023-02-03T07:59:56.758Z,6.50
2023-02-03T08:02:45.283Z,6.50
2023-02-03T08:05:33.163Z,6.90
2023-02-03T08:08:21.191Z,6.50
2023-02-03T08:11:09.299Z,5.50
2023-02-03T08:13:57.498Z,6.90
2023-02-03T08:16:46.692Z,5.70
2023-02-03T08:19:35.407Z,6.20
2023-02-03T08:22:23.603Z,6.60
2023-02-03T08:25:12.174Z,6.50
2023-02-03T08:28:00.163Z,4.80
2023-02-03T08:30:48.268Z,5.40
2023-02-03T08:33:36.375Z,6.00
2023-02-03T08:36:26.941Z,5.00
2023-02-03T08:39:14.643Z,4.80
2023-02-03T08:42:04.248Z,5.00
2023-02-03T08:44:52.389Z,6.50
2023-02-03T08:47:40.613Z,6.50
2023-02-03T08:50:28.662Z,5.70
2023-02-03T08:53:19.145Z,6.10
2023-02-03T08:56:10.325Z,5.70
2023-02-03T08:58:58.230Z,5.30
2023-02-03T09:01:48.544Z,4.30
2023-02-03T09:04:37.179Z,4.70
2023-02-03T09:07:25.354Z,5.20
2023-02-03T09:10:13.265Z,5.40
2023-02-03T09:13:00.897Z,4.90
2023-02-03T09:15:48.889Z,5.40
2023-02-03T09:18:36.771Z,5.60
2023-02-03T09:21:36.445Z,5.30
2023-02-03T09:24:29.279Z,4.70
2023-02-03T09:27:17.176Z,5.70
2023-02-03T09:30:05.553Z,5.30
2023-02-03T09:32:56.585Z,6.00
2023-02-03T09:35:56.231Z,5.50
2023-02-03T09:38:44.482Z,5.70
2023-02-03T09:41:59.046Z,5.70
2023-02-03T09:45:33.393Z,5.00
2023-02-03T09:48:27.167Z,5.80
2023-02-03T09:51:29.750Z,5.50
2023-02-03T09:54:26.523Z,4.90
2023-02-03T09:57:30.183Z,5.20
2023-02-03T10:00:28.389Z,5.40
2023-02-03T10:03:44.018Z,5.30
2023-02-03T10:06:40.635Z,4.80
2023-02-03T10:09:59.897Z,5.00
2023-02-03T10:13:15.309Z,5.30
2023-02-03T10:16:47.814Z,4.60
2023-02-03T10:19:56.997Z,4.90
2023-02-03T10:22:51.048Z,5.20
2023-02-03T10:25:49.885Z,5.60
2023-02-03T10:28:54.457Z,5.40
2023-02-03T10:31:44.222Z,6.50
2023-02-03T10:34:32.597Z,6.20
2023-02-03T10:37:41.767Z,6.50
2023-02-03T10:40:30.273Z,6.80
2023-02-03T10:43:36.828Z,6.60
2023-02-03T10:46:35.464Z,6.60
2023-02-03T10:49:27.818Z,7.10
2023-02-03T10:52:36.465Z,6.40
2023-02-03T10:55:24.582Z,6.00
2023-02-03T10:58:28.037Z,5.40
2023-02-03T11:01:20.309Z,6.30
2023-02-03T11:04:29.706Z,7.20
2023-02-03T11:07:27.010Z,6.20
2023-02-03T11:10:30.025Z,6.20
2023-02-03T11:13:26.645Z,6.80
2023-02-03T11:16:17.922Z,7.10
2023-02-03T11:19:17.273Z,7.80
2023-02-03T11:22:05.849Z,7.50
2023-02-03T11:24:54.061Z,7.20
2023-02-03T11:27:41.909Z,7.70
2023-02-03T11:30:30.497Z,7.50
2023-02-03T11:33:24.320Z,5.80
2023-02-03T11:36:12.878Z,7.00
2023-02-03T11:39:35.833Z,7.70
2023-02-03T11:42:25.052Z,7.20
2023-02-03T11:45:18.572Z,6.40
2023-02-03T11:48:28.219Z,6.50
2023-02-03T11:51:27.947Z,6.70
2023-02-03T11:54:58.292Z,6.00
2023-02-03T11:58:48.317Z,6.40
2023-02-03T12:02:21.754Z,5.90
2023-02-03T12:05:38.768Z,6.60
2023-02-03T12:09:02.548Z,5.60
2023-02-03T12:12:08.646Z,4.80
2023-02-03T12:15:28.765Z,5.20
2023-02-03T12:18:28.735Z,5.60
2023-02-03T12:21:45.216Z,4.80
2023-02-03T12:25:28.871Z,4.60
2023-02-03T12:29:04.338Z,4.20
2023-02-03T12:32:30.235Z,4.70
2023-02-03T12:36:04.447Z,4.10
2023-02-03T12:39:14.721Z,5.30
2023-02-03T12:42:39.709Z,4.90
2023-02-03T12:45:34.442Z,5.70
2023-02-03T12:48:47.710Z,6.30
2023-02-03T12:51:56.410Z,6.30
2023-02-03T12:55:03.388Z,6.70
2023-02-03T12:58:03.194Z,6.30
2023-02-03T13:01:12.414Z,6.20
2023-02-03T13:04:18.899Z,6.70
2023-02-03T13:07:38.597Z,6.30
2023-02-03T13:10:39.875Z,6.60
2023-02-03T13:13:40.241Z,7.20
2023-02-03T13:16:41.051Z,6.60
2023-02-03T13:19:41.354Z,7.20
2023-02-03T13:22:29.149Z,6.60
2023-02-03T13:25:38.483Z,6.50
2023-02-03T13:28:53.361Z,6.00
2023-02-03T13:32:21.431Z,5.10
2023-02-03T13:35:34.806Z,6.10
2023-02-03T13:38:51.170Z,5.10
2023-02-03T13:41:51.812Z,6.60
2023-02-03T13:44:41.607Z,6.00
2023-02-03T13:47:31.831Z,6.50
2023-02-03T13:50:31.093Z,6.90
2023-02-03T13:53:23.895Z,6.90
2023-02-03T13:56:28.242Z,6.80
2023-02-03T13:59:16.000Z,6.10
2023-02-03T14:02:22.030Z,6.70
2023-02-03T14:05:45.650Z,6.70
2023-02-03T14:08:33.521Z,7.40
2023-02-03T14:11:33.708Z,8.20
2023-02-03T14:14:21.557Z,8.20
2023-02-03T14:17:41.805Z,7.20
2023-02-03T14:20:29.529Z,7.40
2023-02-03T14:23:41.852Z,9.60
2023-02-03T14:26:38.747Z,9.30
2023-02-03T14:29:37.493Z,10.40
2023-02-03T14:32:49.451Z,9.30
2023-02-03T14:35:40.818Z,10.60
2023-02-03T14:38:33.268Z,11.10
2023-02-03T14:41:43.678Z,7.90
2023-02-03T14:44:58.855Z,9.30
2023-02-03T14:48:20.683Z,9.80
2023-02-03T14:51:41.494Z,11.00
2023-02-03T14:55:03.174Z,11.10
2023-02-03T14:58:00.722Z,11.10
2023-02-03T15:00:49.635Z,9.50
2023-02-03T15:03:44.261Z,10.30
2023-02-03T15:06:49.623Z,9.00
2023-02-03T15:09:48.756Z,9.30
2023-02-03T15:12:38.055Z,11.50
2023-02-03T15:15:37.142Z,9.20
2023-02-03T15:18:37.937Z,12.10
2023-02-03T15:21:27.489Z,9.80
2023-02-03T15:24:21.546Z,9.10
2023-02-03T15:27:25.062Z,9.90
2023-02-03T15:30:18.737Z,10.50
2023-02-03T15:33:17.055Z,8.20
2023-02-03T15:36:15.293Z,8.70
2023-02-03T15:39:19.101Z,9.50
2023-02-03T15:42:33.142Z,11.60
2023-02-03T15:45:45.943Z,11.90
2023-02-03T15:48:48.278Z,9.00
2023-02-03T15:51:49.277Z,8.40
2023-02-03T15:54:43.636Z,9.20
2023-02-03T15:57:35.787Z,9.10
2023-02-03T16:00:35.727Z,9.40
2023-02-03T16:03:37.715Z,9.20
2023-02-03T16:06:45.161Z,9.10
2023-02-03T16:09:40.401Z,8.80
2023-02-03T16:12:34.058Z,8.60
2023-02-03T16:15:24.969Z,9.70
2023-02-03T16:18:18.242Z,6.90
2023-02-03T16:21:06.567Z,7.00
2023-02-03T16:23:54.420Z,8.80
2023-02-03T16:26:42.704Z,9.10
2023-02-03T16:29:49.117Z,7.10
2023-02-03T16:32:55.661Z,7.30
2023-02-03T16:36:02.220Z,7.00
2023-02-03T16:39:10.052Z,8.10
2023-02-03T16:42:18.739Z,6.40
2023-02-03T16:45:37.168Z,6.60
2023-02-03T16:48:43.185Z,6.90
2023-02-03T16:51:42.684Z,6.20
2023-02-03T16:54:32.960Z,6.00
2023-02-03T16:57:21.033Z,5.70
2023-02-03T17:00:13.202Z,4.60
2023-02-03T17:03:04.880Z,5.00
2023-02-03T17:05:53.118Z,5.10
2023-02-03T17:08:42.113Z,4.90
2023-02-03T17:11:32.111Z,4.50
2023-02-03T17:14:19.778Z,5.30
2023-02-03T17:17:09.047Z,4.90
2023-02-03T17:19:57.217Z,4.40
2023-02-03T17:22:45.106Z,4.70
2023-02-03T17:25:37.771Z,4.30
2023-02-03T17:28:26.333Z,4.50
2023-02-03T17:31:18.272Z,4.20
2023-02-03T17:34:05.998Z,3.00
2023-02-03T17:36:55.842Z,4.30
2023-02-03T17:55:12.388Z,6.10
2023-02-03T17:58:00.388Z,5.80
2023-02-03T18:00:48.293Z,4.20
2023-02-03T18:03:36.044Z,4.30
2023-02-03T18:06:27.181Z,4.40
2023-02-03T18:09:16.664Z,5.00
2023-02-03T18:12:05.132Z,4.50
2023-02-03T18:14:53.025Z,5.20
2023-02-03T18:17:41.023Z,5.80
2023-02-03T18:20:30.190Z,4.50
2023-02-03T18:23:20.005Z,5.50
2023-02-03T18:26:11.914Z,5.50
2023-02-03T18:29:00.648Z,5.50
2023-02-03T18:31:50.199Z,4.80
2023-02-03T18:34:38.730Z,5.30
2023-02-03T18:37:27.253Z,5.00
2023-02-03T18:40:15.821Z,4.80
2023-02-03T18:43:04.031Z,4.70
2023-02-03T18:45:52.424Z,3.80
2023-02-03T18:48:40.513Z,4.60
2023-02-03T18:51:28.792Z,4.90
2023-02-03T18:54:16.774Z,4.20
2023-02-03T18:57:05.928Z,4.50
2023-02-03T18:59:54.155Z,4.40
2023-02-03T19:02:42.353Z,4.30
2023-02-03T19:05:30.754Z,4.80
2023-02-03T19:08:19.686Z,4.50
2023-02-03T19:11:08.025Z,5.70
2023-02-03T19:13:58.566Z,5.70
2023-02-03T19:16:48.058Z,5.30
2023-02-03T19:19:36.879Z,5.90
2023-02-03T19:22:24.862Z,4.60
2023-02-03T19:25:13.443Z,5.00
2023-02-03T19:28:04.375Z,4.70
2023-02-03T19:31:02.944Z,5.00
2023-02-03T19:33:59.395Z,4.00
2023-02-03T19:36:47.455Z,3.70
2023-02-03T19:39:35.889Z,4.20
2023-02-03T19:42:23.888Z,3.90
2023-02-03T19:45:12.921Z,4.10
2023-02-03T19:48:00.910Z,4.20
2023-02-03T19:50:49.699Z,4.10
2023-02-03T19:53:38.293Z,4.10
2023-02-03T19:56:26.499Z,12.10
2023-02-03T19:59:14.870Z,5.60
2023-02-03T20:02:13.782Z,5.10
2023-02-03T20:05:06.782Z,4.40
2023-02-03T20:07:55.022Z,3.80
2023-02-03T20:10:48.725Z,4.10
2023-02-03T20:13:37.255Z,4.20
2023-02-03T20:16:25.625Z,4.20
2023-02-03T20:19:14.106Z,3.20
2023-02-03T20:22:02.177Z,4.00
2023-02-03T20:24:49.835Z,4.10
2023-02-03T20:27:37.690Z,4.00
2023-02-03T20:30:26.060Z,3.90
2023-02-03T20:33:16.355Z,4.50
2023-02-03T20:36:05.213Z,3.80
2023-02-03T20:38:53.030Z,3.70
2023-02-03T20:41:41.440Z,4.10
2023-02-03T20:44:29.325Z,4.90
2023-02-03T20:47:19.190Z,4.00
2023-02-03T20:50:18.397Z,4.40
2023-02-03T20:53:18.761Z,4.10
2023-02-03T20:56:16.834Z,3.90
2023-02-03T20:59:11.044Z,3.80
2023-02-03T21:02:07.870Z,4.10
2023-02-03T21:04:58.509Z,4.20
2023-02-03T21:07:46.912Z,4.90
2023-02-03T21:10:40.259Z,4.10
2023-02-03T21:13:35.116Z,4.10
2023-02-03T21:16:29.652Z,3.40
2023-02-03T21:19:29.085Z,3.50
2023-02-03T21:22:39.976Z,3.50
2023-02-03T21:25:32.730Z,3.10
2023-02-03T21:28:26.617Z,3.60
2023-02-03T21:31:28.666Z,3.40
2023-02-03T21:34:21.505Z,3.80
2023-02-03T21:37:12.169Z,3.30
2023-02-03T21:40:00.151Z,3.20
2023-02-03T21:42:48.661Z,2.90
2023-02-03T21:45:42.913Z,2.90
2023-02-03T21:48:40.973Z,2.70
2023-02-03T21:51:39.640Z,2.30
2023-02-03T21:54:33.929Z,2.60
2023-02-03T21:57:22.083Z,2.80
2023-02-03T22:00:48.067Z,2.40
2023-02-03T22:03:40.814Z,2.80
2023-02-03T22:06:34.227Z,2.60
2023-02-03T22:09:25.523Z,2.70
2023-02-03T22:12:13.455Z,3.10
2023-02-03T22:15:01.605Z,2.70
2023-02-03T22:17:50.539Z,2.50
2023-02-03T22:20:38.418Z,2.90
2023-02-03T22:23:25.959Z,2.30
2023-02-03T22:26:15.227Z,2.70
2023-02-03T22:29:02.962Z,2.50
2023-02-03T22:31:51.045Z,2.00
2023-02-03T22:34:38.807Z,2.40
2023-02-03T22:37:26.766Z,2.00
2023-02-03T22:40:14.740Z,2.10
2023-02-03T22:43:03.168Z,1.80
2023-02-03T22:45:51.423Z,2.10
2023-02-03T22:48:39.491Z,2.40
2023-02-03T22:51:27.502Z,1.90
2023-02-03T22:54:15.508Z,2.20
2023-02-03T22:57:03.390Z,2.80
2023-02-03T22:59:51.705Z,2.30
2023-02-03T23:02:42.443Z,2.30
2023-02-03T23:05:31.509Z,2.00
2023-02-03T23:08:19.417Z,2.20
2023-02-03T23:11:07.285Z,2.30
2023-02-03T23:13:55.193Z,1.70
2023-02-03T23:16:43.757Z,1.90
2023-02-03T23:19:31.809Z,1.60
2023-02-03T23:22:19.580Z,1.90
2023-02-03T23:25:08.196Z,1.90
2023-02-03T23:27:56.065Z,2.00
2023-02-03T23:30:43.989Z,1.90
2023-02-03T23:33:31.841Z,1.70
2023-02-03T23:36:19.693Z,1.90
2023-02-03T23:39:08.004Z,1.60
2023-02-03T23:41:57.696Z,1.80
2023-02-03T23:44:45.699Z,1.50
2023-02-03T23:47:34.089Z,1.50
2023-02-03T23:50:22.340Z,1.40
2023-02-03T23:53:10.764Z,1.70
2023-02-03T23:55:59.028Z,1.50
2023-02-03T23:58:46.466Z,1.40
